Time;durP1;ratioP1;P1;durP2;ratioP2;P2;SDS_P1;SDS_P2;PMS_P1;PMS_P2;Temp;Humidity;BMP_temperature;BMP_pressure;BME280_temperature;BME280_humidity;BME280_pressure;Samples;Min_cycle;Max_cycle;Signal;HPM_P1;HPM_P2
2021/09/24 00:02:16;;;;;;;;;;;19.20;84.60;;;;;;4282009;33;44146;-84
2021/09/24 00:04:43;;;;;;;;;;;19.20;84.70;;;;;;4276454;33;43318;-84
2021/09/24 00:07:10;;;;;;;;;;;19.20;84.80;;;;;;4276526;33;43655;-84
2021/09/24 00:09:40;;;;;;;;;;;19.10;84.80;;;;;;4289592;33;43165;-84
2021/09/24 00:12:09;;;;;;;;;;;19.10;84.80;;;;;;4276947;33;42989;-84
2021/09/24 00:14:36;;;;;;;;;;;19.10;84.90;;;;;;4289691;33;43950;-84
2021/09/24 00:17:04;;;;;;;;;;;19.10;85.00;;;;;;4276669;33;44200;-84
2021/09/24 00:19:31;;;;;;;;;;;19.10;85.10;;;;;;4276679;33;43262;-83
2021/09/24 00:21:58;;;;;;;;;;;19.00;85.10;;;;;;4288268;33;43995;-84
2021/09/24 00:24:25;;;;;;;;;;;19.00;85.10;;;;;;4276949;33;43942;-84
2021/09/24 00:26:55;;;;;;;;;;;19.00;85.20;;;;;;4289520;33;43209;-83
2021/09/24 00:29:25;;;;;;;;;;;19.00;85.40;;;;;;4287981;33;43300;-83
2021/09/24 00:31:53;;;;;;;;;;;19.00;85.50;;;;;;4289389;33;43513;-84
2021/09/24 00:34:22;;;;;;;;;;;18.90;85.50;;;;;;4289515;33;44036;-83
2021/09/24 00:36:52;;;;;;;;;;;18.90;85.50;;;;;;4276187;33;42498;-83
2021/09/24 00:39:19;;;;;;;;;;;18.90;85.60;;;;;;4288878;33;44399;-84
2021/09/24 00:41:49;;;;;;;;;;;18.90;85.60;;;;;;4289285;33;43783;-84
2021/09/24 00:44:16;;;;;;;;;;;18.90;85.60;;;;;;4288804;33;44078;-83
2021/09/24 00:46:43;;;;;;;;;;;18.90;85.60;;;;;;4288827;33;44930;-84
2021/09/24 00:49:21;;;;;;;;;;;18.90;85.70;;;;;;4289615;33;43582;-84
2021/09/24 00:51:53;;;;;;;;;;;18.90;85.70;;;;;;4276215;33;44109;-83
2021/09/24 00:54:23;;;;;;;;;;;18.80;85.70;;;;;;4289170;33;42634;-83
2021/09/24 00:56:52;;;;;;;;;;;18.90;86.60;;;;;;4276148;33;42851;-83
2021/09/24 00:59:22;;;;;;;;;;;18.90;85.80;;;;;;4288626;33;44309;-83
2021/09/24 01:01:49;;;;;;;;;;;18.80;85.80;;;;;;4288577;33;42778;-83
2021/09/24 01:04:16;;;;;;;;;;;18.80;85.90;;;;;;4288980;33;42974;-83
2021/09/24 01:06:46;;;;;;;;;;;18.80;85.90;;;;;;4288887;33;42303;-83
2021/09/24 01:09:15;;;;;;;;;;;18.80;86.00;;;;;;4288862;33;43326;-84
2021/09/24 01:11:43;;;;;;;;;;;18.80;86.10;;;;;;4287684;33;43908;-83
2021/09/24 01:14:10;;;;;;;;;;;18.80;86.10;;;;;;4288541;33;42509;-84
2021/09/24 01:16:37;;;;;;;;;;;18.80;86.10;;;;;;4276103;33;42450;-83
2021/09/24 01:19:05;;;;;;;;;;;18.70;86.10;;;;;;4275990;33;42934;-83
2021/09/24 01:21:36;;;;;;;;;;;18.70;86.10;;;;;;4288333;33;44717;-83
2021/09/24 01:24:03;;;;;;;;;;;18.70;86.20;;;;;;4288872;33;43482;-83
2021/09/24 01:26:30;;;;;;;;;;;18.70;86.30;;;;;;4275753;33;43928;-83
2021/09/24 01:28:59;;;;;;;;;;;18.70;86.40;;;;;;4275273;33;44588;-83
2021/09/24 01:31:26;;;;;;;;;;;18.70;86.40;;;;;;4287542;33;42918;-83
2021/09/24 01:33:53;;;;;;;;;;;18.60;86.40;;;;;;4288484;33;42612;-83
2021/09/24 01:36:25;;;;;;;;;;;18.60;86.50;;;;;;4288542;33;43469;-83
2021/09/24 01:38:52;;;;;;;;;;;18.60;86.50;;;;;;4288648;33;44248;-83
2021/09/24 01:41:22;;;;;;;;;;;18.60;86.60;;;;;;4275787;33;43637;-83
2021/09/24 01:43:51;;;;;;;;;;;18.60;86.60;;;;;;4275298;33;43279;-83
2021/09/24 01:46:21;;;;;;;;;;;18.60;86.70;;;;;;4288032;33;44187;-83
2021/09/24 01:48:54;;;;;;;;;;;18.60;86.70;;;;;;4275190;33;42957;-83
2021/09/24 01:51:21;;;;;;;;;;;18.60;86.80;;;;;;4275477;33;44206;-83
2021/09/24 01:53:50;;;;;;;;;;;18.60;86.80;;;;;;4287487;33;43250;-83
2021/09/24 01:56:20;;;;;;;;;;;18.50;86.80;;;;;;4287922;33;42517;-82
2021/09/24 01:58:48;;;;;;;;;;;18.50;87.00;;;;;;4275076;33;43261;-83
2021/09/24 02:01:15;;;;;;;;;;;18.50;87.10;;;;;;4286674;33;42779;-83
2021/09/24 02:03:42;;;;;;;;;;;18.50;87.20;;;;;;4287277;33;44601;-82
2021/09/24 02:06:10;;;;;;;;;;;18.50;87.40;;;;;;4287728;33;43351;-82
2021/09/24 02:08:39;;;;;;;;;;;18.40;87.50;;;;;;4287718;33;43526;-82
2021/09/24 02:11:11;;;;;;;;;;;18.40;87.70;;;;;;4286827;33;43790;-83
2021/09/24 02:13:39;;;;;;;;;;;18.40;87.90;;;;;;4288211;33;44702;-82
2021/09/24 02:16:07;;;;;;;;;;;18.40;88.10;;;;;;4287110;33;44242;-82
2021/09/24 02:18:36;;;;;;;;;;;18.40;88.20;;;;;;4274561;33;43544;-81
2021/09/24 02:21:06;;;;;;;;;;;18.40;88.30;;;;;;4274853;33;43972;-83
2021/09/24 02:23:33;;;;;;;;;;;18.30;88.40;;;;;;4286772;33;43938;-82
2021/09/24 02:26:03;;;;;;;;;;;18.30;88.40;;;;;;4287788;33;43852;-82
2021/09/24 02:28:30;;;;;;;;;;;18.30;88.60;;;;;;4287892;33;42700;-82
2021/09/24 02:30:57;;;;;;;;;;;18.30;88.70;;;;;;4287919;33;43513;-82
2021/09/24 02:33:25;;;;;;;;;;;18.30;88.80;;;;;;4274899;33;41910;-82
2021/09/24 02:35:54;;;;;;;;;;;18.30;89.00;;;;;;4287491;33;44248;-82
2021/09/24 02:38:21;;;;;;;;;;;18.30;89.10;;;;;;4286336;33;44182;-83
2021/09/24 02:40:51;;;;;;;;;;;18.20;89.10;;;;;;4286736;33;43262;-83
2021/09/24 02:43:19;;;;;;;;;;;18.30;89.30;;;;;;4274305;33;43285;-83
2021/09/24 02:45:46;;;;;;;;;;;18.30;89.40;;;;;;4287248;33;43970;-83
2021/09/24 02:48:15;;;;;;;;;;;18.20;89.50;;;;;;4274371;33;41432;-82
2021/09/24 02:50:43;;;;;;;;;;;18.20;89.70;;;;;;4274817;33;44221;-82
2021/09/24 02:53:10;;;;;;;;;;;18.20;89.70;;;;;;4287173;33;43847;-82
2021/09/24 02:55:40;;;;;;;;;;;18.20;89.80;;;;;;4274272;33;43056;-83
2021/09/24 02:58:07;;;;;;;;;;;18.10;89.90;;;;;;4274446;33;43356;-82
2021/09/24 03:00:34;;;;;;;;;;;18.10;90.00;;;;;;4274525;33;43933;-82
2021/09/24 03:03:02;;;;;;;;;;;18.10;90.00;;;;;;4274211;33;43902;-82
2021/09/24 03:05:30;;;;;;;;;;;18.10;90.00;;;;;;4274494;33;43567;-82
2021/09/24 03:08:00;;;;;;;;;;;18.10;90.10;;;;;;4274172;33;42329;-82
2021/09/24 03:10:27;;;;;;;;;;;18.10;90.10;;;;;;4286833;33;45216;-83
2021/09/24 03:12:57;;;;;;;;;;;18.10;90.20;;;;;;4287198;33;45045;-83
2021/09/24 03:15:24;;;;;;;;;;;18.00;90.20;;;;;;4287402;33;43244;-83
2021/09/24 03:17:53;;;;;;;;;;;18.10;90.20;;;;;;4286842;33;42893;-82
2021/09/24 03:20:26;;;;;;;;;;;18.00;90.30;;;;;;4286735;33;46049;-83
2021/09/24 03:22:56;;;;;;;;;;;18.00;90.30;;;;;;4286844;33;43760;-82
2021/09/24 03:25:23;;;;;;;;;;;18.00;90.30;;;;;;4287261;33;43877;-82
2021/09/24 03:27:50;;;;;;;;;;;18.00;90.40;;;;;;4273767;33;44890;-82
2021/09/24 03:30:17;;;;;;;;;;;18.00;90.50;;;;;;4273901;33;43083;-82
2021/09/24 03:32:44;;;;;;;;;;;18.00;90.50;;;;;;4286635;33;45259;-83
2021/09/24 03:35:12;;;;;;;;;;;18.00;90.50;;;;;;4273275;33;43274;-81
2021/09/24 03:37:39;;;;;;;;;;;18.00;90.50;;;;;;4286954;33;43038;-82
2021/09/24 03:40:10;;;;;;;;;;;18.00;90.50;;;;;;4273835;33;43404;-82
2021/09/24 03:42:37;;;;;;;;;;;18.00;90.50;;;;;;4286653;33;43108;-81
2021/09/24 03:45:08;;;;;;;;;;;18.00;90.50;;;;;;4286601;33;44162;-82
2021/09/24 03:47:35;;;;;;;;;;;18.00;90.50;;;;;;4286633;33;44097;-82
2021/09/24 03:50:06;;;;;;;;;;;18.00;90.50;;;;;;4273968;33;43507;-82
2021/09/24 03:52:33;;;;;;;;;;;18.00;90.60;;;;;;4287005;33;43803;-82
2021/09/24 03:55:03;;;;;;;;;;;18.00;90.60;;;;;;4285382;33;43284;-82
2021/09/24 03:57:35;;;;;;;;;;;18.00;90.60;;;;;;4273431;33;44493;-82
2021/09/24 04:00:03;;;;;;;;;;;18.00;90.70;;;;;;4286850;33;42567;-81
2021/09/24 04:02:30;;;;;;;;;;;18.00;90.70;;;;;;4286264;33;44240;-82
2021/09/24 04:04:58;;;;;;;;;;;18.00;90.70;;;;;;4287161;33;43929;-83
2021/09/24 04:07:29;;;;;;;;;;;18.00;90.70;;;;;;4286437;33;44228;-82
2021/09/24 04:09:57;;;;;;;;;;;18.00;90.70;;;;;;4274190;33;44066;-82
2021/09/24 04:12:24;;;;;;;;;;;18.00;90.70;;;;;;4285617;33;44234;-82
2021/09/24 04:14:54;;;;;;;;;;;18.00;90.80;;;;;;4286582;33;43745;-82
2021/09/24 04:17:21;;;;;;;;;;;18.00;90.80;;;;;;4286837;33;43871;-82
2021/09/24 04:19:48;;;;;;;;;;;18.00;90.90;;;;;;4286714;33;43885;-82
2021/09/24 04:22:15;;;;;;;;;;;18.00;90.90;;;;;;4285402;33;43850;-82
2021/09/24 04:24:42;;;;;;;;;;;18.00;90.90;;;;;;4286505;33;43020;-83
2021/09/24 04:27:09;;;;;;;;;;;18.00;90.90;;;;;;4286594;33;43090;-82
2021/09/24 04:29:37;;;;;;;;;;;18.00;90.90;;;;;;4286608;33;42964;-82
2021/09/24 04:32:06;;;;;;;;;;;18.00;90.90;;;;;;4273678;33;43359;-82
2021/09/24 04:34:33;;;;;;;;;;;18.00;91.00;;;;;;4286254;33;43110;-82
2021/09/24 04:37:06;;;;;;;;;;;18.00;91.00;;;;;;4273400;33;43257;-82
2021/09/24 04:39:36;;;;;;;;;;;18.00;91.00;;;;;;4273627;33;45962;-81
2021/09/24 04:42:03;;;;;;;;;;;18.00;91.00;;;;;;4286763;33;43458;-81
2021/09/24 04:44:33;;;;;;;;;;;18.00;91.00;;;;;;4273895;33;44193;-82
2021/09/24 04:47:00;;;;;;;;;;;18.00;91.00;;;;;;4289260;33;42564;-82
2021/09/24 04:49:27;;;;;;;;;;;18.00;91.10;;;;;;4276018;33;43786;-82
2021/09/24 04:51:57;;;;;;;;;;;18.00;91.10;;;;;;4287859;33;44099;-82
2021/09/24 04:54:27;;;;;;;;;;;18.00;91.10;;;;;;4288783;33;43672;-82
2021/09/24 04:56:58;;;;;;;;;;;18.00;91.10;;;;;;4288749;33;43522;-82
2021/09/24 04:59:26;;;;;;;;;;;18.00;91.10;;;;;;4288155;33;43523;-82
2021/09/24 05:01:54;;;;;;;;;;;18.00;91.50;;;;;;4288869;33;43505;-82
2021/09/24 05:04:23;;;;;;;;;;;18.00;91.20;;;;;;4276387;33;43742;-81
2021/09/24 05:06:50;;;;;;;;;;;18.00;91.20;;;;;;4275838;33;44108;-82
2021/09/24 05:09:17;;;;;;;;;;;18.00;91.20;;;;;;4276001;33;42593;-82
2021/09/24 05:11:50;;;;;;;;;;;18.00;91.20;;;;;;4288926;33;44111;-81
2021/09/24 05:14:17;;;;;;;;;;;18.00;91.30;;;;;;4276124;33;43288;-82
2021/09/24 05:16:44;;;;;;;;;;;18.00;91.30;;;;;;4288695;33;43278;-81
2021/09/24 05:19:14;;;;;;;;;;;18.00;91.40;;;;;;4275420;33;43322;-81
2021/09/24 05:21:41;;;;;;;;;;;18.00;91.70;;;;;;4288342;33;43434;-81
2021/09/24 05:24:08;;;;;;;;;;;18.00;91.40;;;;;;4287253;33;43449;-81
2021/09/24 05:26:38;;;;;;;;;;;18.00;91.40;;;;;;4288371;33;43820;-81
2021/09/24 05:29:05;;;;;;;;;;;18.00;91.40;;;;;;4275377;33;44235;-81
2021/09/24 05:31:32;;;;;;;;;;;18.00;91.40;;;;;;4276169;33;44156;-81
2021/09/24 05:34:01;;;;;;;;;;;18.00;91.50;;;;;;4275638;33;43174;-81
2021/09/24 05:36:31;;;;;;;;;;;18.00;91.50;;;;;;4287413;33;44918;-82
2021/09/24 05:38:58;;;;;;;;;;;18.00;91.50;;;;;;4275793;33;43857;-82
2021/09/24 05:41:30;;;;;;;;;;;18.00;91.50;;;;;;4288601;33;43690;-81
2021/09/24 05:43:57;;;;;;;;;;;18.00;91.60;;;;;;4288436;33;20014;-81
2021/09/24 05:46:26;;;;;;;;;;;18.00;91.60;;;;;;4288107;33;43879;-81
2021/09/24 05:48:53;;;;;;;;;;;18.00;91.60;;;;;;4288020;33;43039;-81
2021/09/24 05:51:20;;;;;;;;;;;17.90;91.60;;;;;;4288491;33;43853;-81
2021/09/24 05:53:48;;;;;;;;;;;18.00;91.70;;;;;;4275552;33;43890;-81
2021/09/24 05:56:15;;;;;;;;;;;18.00;91.70;;;;;;4287910;33;43917;-81
2021/09/24 05:58:42;;;;;;;;;;;18.00;91.80;;;;;;4286584;33;42855;-81
2021/09/24 06:01:09;;;;;;;;;;;18.00;91.80;;;;;;4287868;33;43961;-81
2021/09/24 06:03:36;;;;;;;;;;;18.00;91.80;;;;;;4288433;33;44062;-81
2021/09/24 06:06:03;;;;;;;;;;;18.00;91.80;;;;;;4286673;33;44094;-81
2021/09/24 06:08:33;;;;;;;;;;;18.00;91.90;;;;;;4274817;33;42812;-81
2021/09/24 06:11:02;;;;;;;;;;;18.00;91.90;;;;;;4287773;33;44183;-81
2021/09/24 06:13:32;;;;;;;;;;;18.00;91.90;;;;;;4274933;33;43690;-81
2021/09/24 06:15:59;;;;;;;;;;;18.00;91.90;;;;;;4287711;33;43417;-81
2021/09/24 06:18:30;;;;;;;;;;;18.00;91.90;;;;;;4286760;33;43725;-81
2021/09/24 06:21:02;;;;;;;;;;;18.00;92.00;;;;;;4275257;33;43051;-81
2021/09/24 06:23:31;;;;;;;;;;;17.90;92.00;;;;;;4288048;33;44253;-81
2021/09/24 06:26:03;;;;;;;;;;;18.00;92.10;;;;;;4275403;33;44239;-81
2021/09/24 06:28:31;;;;;;;;;;;17.90;92.10;;;;;;4287731;33;45269;-81
2021/09/24 06:30:58;;;;;;;;;;;17.90;92.10;;;;;;4287760;33;43914;-81
2021/09/24 06:33:25;;;;;;;;;;;17.90;92.10;;;;;;4287438;33;42954;-81
2021/09/24 06:35:52;;;;;;;;;;;17.90;92.10;;;;;;4287788;33;43193;-81
2021/09/24 06:38:19;;;;;;;;;;;17.90;92.10;;;;;;4274844;33;44267;-81
2021/09/24 06:40:47;;;;;;;;;;;17.90;92.20;;;;;;4286421;33;43539;-81
2021/09/24 06:43:14;;;;;;;;;;;17.90;92.20;;;;;;4274324;33;42911;-81
2021/09/24 06:45:41;;;;;;;;;;;17.90;92.30;;;;;;4287238;33;42716;-81
2021/09/24 06:48:08;;;;;;;;;;;17.90;92.30;;;;;;4287256;33;44065;-81
2021/09/24 06:50:36;;;;;;;;;;;17.90;92.30;;;;;;4286658;33;45105;-81
2021/09/24 06:53:03;;;;;;;;;;;17.90;92.30;;;;;;4287310;33;43315;-81
2021/09/24 06:55:31;;;;;;;;;;;17.90;92.40;;;;;;4287140;33;43733;-81
2021/09/24 06:57:58;;;;;;;;;;;17.90;92.40;;;;;;4286525;33;43321;-81
2021/09/24 07:00:25;;;;;;;;;;;17.90;92.40;;;;;;4286410;33;45176;-81
2021/09/24 07:02:55;;;;;;;;;;;17.90;92.50;;;;;;4271463;33;44037;-81
2021/09/24 07:05:25;;;;;;;;;;;17.90;92.40;;;;;;4272897;33;43888;-81
2021/09/24 07:07:52;;;;;;;;;;;17.80;92.40;;;;;;4271490;33;43373;-81
2021/09/24 07:10:19;;;;;;;;;;;17.80;92.50;;;;;;4271736;33;42268;-82
2021/09/24 07:12:48;;;;;;;;;;;17.80;92.50;;;;;;4272798;33;44263;-81
2021/09/24 07:15:16;;;;;;;;;;;17.80;92.50;;;;;;4272964;33;42280;-81
2021/09/24 07:17:43;;;;;;;;;;;17.80;92.50;;;;;;4272930;33;43227;-81
2021/09/24 07:20:10;;;;;;;;;;;17.80;92.60;;;;;;4271610;33;42836;-81
2021/09/24 07:22:37;;;;;;;;;;;17.80;92.60;;;;;;4271495;33;44345;-81
2021/09/24 07:25:05;;;;;;;;;;;17.80;92.60;;;;;;4272506;33;44114;-80
2021/09/24 07:27:33;;;;;;;;;;;17.80;92.70;;;;;;4272764;33;44460;-81
2021/09/24 07:30:00;;;;;;;;;;;17.80;92.70;;;;;;4271299;33;43279;-81
2021/09/24 07:32:27;;;;;;;;;;;17.70;92.70;;;;;;4272313;33;43208;-80
2021/09/24 07:34:55;;;;;;;;;;;17.70;92.70;;;;;;4272810;33;43641;-82
2021/09/24 07:37:22;;;;;;;;;;;17.70;92.70;;;;;;4272875;33;43534;-81
2021/09/24 07:39:49;;;;;;;;;;;17.70;92.80;;;;;;4271174;33;42684;-80
2021/09/24 07:42:16;;;;;;;;;;;17.80;92.80;;;;;;4272715;33;46259;-81
2021/09/24 07:44:44;;;;;;;;;;;17.70;92.80;;;;;;4271632;33;43120;-81
2021/09/24 07:47:11;;;;;;;;;;;17.80;92.90;;;;;;4272810;33;43365;-81
2021/09/24 07:49:40;;;;;;;;;;;17.80;92.80;;;;;;4271139;33;44305;-80
2021/09/24 07:52:08;;;;;;;;;;;17.70;92.80;;;;;;4272404;33;43954;-80
2021/09/24 07:54:35;;;;;;;;;;;17.70;92.80;;;;;;4283440;33;44670;-80
2021/09/24 07:57:02;;;;;;;;;;;17.70;92.90;;;;;;4272529;33;45550;-81
2021/09/24 07:59:29;;;;;;;;;;;17.80;92.90;;;;;;4272628;33;42797;-80
2021/09/24 08:01:56;;;;;;;;;;;17.70;92.90;;;;;;4277030;33;43853;-81
2021/09/24 08:04:23;;;;;;;;;;;17.70;92.90;;;;;;4286650;33;44171;-80
2021/09/24 08:06:50;;;;;;;;;;;17.80;92.90;;;;;;4286776;33;43834;-80
2021/09/24 08:09:17;;;;;;;;;;;17.70;92.90;;;;;;4286501;33;42955;-80
2021/09/24 08:11:45;;;;;;;;;;;17.80;92.90;;;;;;4273473;33;43512;-80
2021/09/24 08:14:14;;;;;;;;;;;17.80;92.90;;;;;;4286829;33;42525;-80
2021/09/24 08:16:41;;;;;;;;;;;17.80;92.90;;;;;;4285343;33;43894;-81
2021/09/24 08:19:08;;;;;;;;;;;17.80;93.00;;;;;;4273978;33;44205;-81
2021/09/24 08:21:35;;;;;;;;;;;17.80;93.00;;;;;;4288560;33;43262;-80
2021/09/24 08:24:02;;;;;;;;;;;17.80;93.00;;;;;;4289610;33;44188;-81
2021/09/24 08:26:32;;;;;;;;;;;17.80;93.00;;;;;;4276665;33;43260;-80
2021/09/24 08:29:02;;;;;;;;;;;17.80;93.00;;;;;;4289083;33;43855;-80
2021/09/24 08:31:30;;;;;;;;;;;17.80;93.00;;;;;;4289119;33;43877;-81
2021/09/24 08:33:59;;;;;;;;;;;17.80;93.00;;;;;;4289343;33;42613;-82
2021/09/24 08:36:26;;;;;;;;;;;17.80;93.00;;;;;;4276564;33;44577;-81
2021/09/24 08:38:53;;;;;;;;;;;17.80;93.00;;;;;;4287784;33;43559;-82
2021/09/24 08:41:25;;;;;;;;;;;17.80;93.00;;;;;;4289281;33;43820;-81
2021/09/24 08:43:52;;;;;;;;;;;17.80;93.00;;;;;;4289465;33;43109;-81
2021/09/24 08:46:19;;;;;;;;;;;17.80;93.00;;;;;;4276150;33;42801;-81
2021/09/24 08:48:51;;;;;;;;;;;17.80;93.00;;;;;;4277056;33;43970;-81
2021/09/24 08:51:19;;;;;;;;;;;17.80;93.00;;;;;;4289322;33;43816;-80
2021/09/24 08:53:46;;;;;;;;;;;17.80;93.00;;;;;;4289208;33;43490;-81
2021/09/24 08:56:14;;;;;;;;;;;17.80;93.00;;;;;;4288797;33;44248;-81
2021/09/24 08:58:41;;;;;;;;;;;17.80;93.00;;;;;;4287632;33;44153;-81
2021/09/24 09:01:08;;;;;;;;;;;17.80;93.00;;;;;;4288635;33;43185;-81
2021/09/24 09:03:43;;;;;;;;;;;17.80;93.00;;;;;;4274386;33;43404;-80
2021/09/24 09:06:12;;;;;;;;;;;17.80;93.00;;;;;;4274896;33;43255;-82
2021/09/24 09:08:39;;;;;;;;;;;17.80;93.00;;;;;;4285285;33;42731;-81
2021/09/24 09:11:07;;;;;;;;;;;17.80;93.00;;;;;;4274214;33;43169;-82
2021/09/24 09:13:37;;;;;;;;;;;17.80;93.00;;;;;;4284903;33;45274;-81
2021/09/24 09:16:06;;;;;;;;;;;17.80;93.00;;;;;;4273416;33;45528;-81
2021/09/24 09:18:34;;;;;;;;;;;17.80;93.00;;;;;;4274430;33;44624;-82
2021/09/24 09:21:03;;;;;;;;;;;17.80;93.00;;;;;;4284798;33;42971;-81
2021/09/24 09:23:31;;;;;;;;;;;17.90;93.00;;;;;;4284961;33;42640;-81
2021/09/24 09:26:00;;;;;;;;;;;17.90;93.00;;;;;;4273997;33;45792;-81
2021/09/24 09:28:27;;;;;;;;;;;17.90;93.00;;;;;;4284745;33;44556;-82
2021/09/24 09:30:55;;;;;;;;;;;17.90;93.00;;;;;;4273385;33;44049;-82
2021/09/24 09:33:25;;;;;;;;;;;17.90;93.00;;;;;;4284611;33;43147;-81
2021/09/24 09:35:54;;;;;;;;;;;17.90;93.00;;;;;;4284699;33;42961;-82
2021/09/24 09:38:28;;;;;;;;;;;17.90;93.10;;;;;;4285166;33;45057;-81
2021/09/24 09:40:59;;;;;;;;;;;17.90;93.10;;;;;;4273076;33;43049;-81
2021/09/24 09:43:30;;;;;;;;;;;17.90;93.10;;;;;;4273225;33;44041;-81
2021/09/24 09:45:59;;;;;;;;;;;17.90;93.10;;;;;;4273090;33;43928;-82
2021/09/24 09:48:26;;;;;;;;;;;17.90;93.10;;;;;;4272720;33;43305;-82
2021/09/24 09:50:54;;;;;;;;;;;17.90;93.10;;;;;;4273967;33;44288;-82
2021/09/24 09:53:21;;;;;;;;;;;17.90;93.10;;;;;;4273813;33;42982;-82
2021/09/24 09:55:50;;;;;;;;;;;17.90;93.20;;;;;;4284871;33;46238;-82
2021/09/24 09:58:21;;;;;;;;;;;17.90;93.20;;;;;;4284684;33;43303;-82
2021/09/24 10:00:59;;;;;;;;;;;17.90;93.20;;;;;;4284785;33;43861;-82
2021/09/24 10:03:27;;;;;;;;;;;17.90;93.20;;;;;;4287234;33;43790;-82
2021/09/24 10:05:55;;;;;;;;;;;17.90;93.20;;;;;;4286729;33;44153;-82
2021/09/24 10:08:32;;;;;;;;;;;17.90;93.20;;;;;;4286766;33;42934;-81
2021/09/24 10:11:02;;;;;;;;;;;18.00;93.20;;;;;;4274817;33;45038;-82
2021/09/24 10:13:35;;;;;;;;;;;18.00;93.20;;;;;;4287918;33;42283;-82
2021/09/24 10:16:03;;;;;;;;;;;18.00;93.20;;;;;;4274995;33;43351;-82
2021/09/24 10:18:31;;;;;;;;;;;18.00;93.20;;;;;;4286766;33;45136;-82
2021/09/24 10:20:58;;;;;;;;;;;18.00;93.20;;;;;;4286855;33;44261;-81
2021/09/24 10:23:25;;;;;;;;;;;18.00;93.20;;;;;;4286997;33;44281;-82
2021/09/24 10:25:57;;;;;;;;;;;18.00;93.10;;;;;;4287964;33;43501;-82
2021/09/24 10:28:29;;;;;;;;;;;18.10;93.20;;;;;;4286940;33;45051;-82
2021/09/24 10:30:57;;;;;;;;;;;18.00;93.10;;;;;;4274985;33;44307;-82
2021/09/24 10:33:43;;;;;;;;;;;18.10;93.10;;;;;;4274740;33;42667;-81
2021/09/24 10:36:30;;;;;;;;;;;18.10;93.10;;;;;;4287357;33;42307;-82
2021/09/24 10:38:59;;;;;;;;;;;18.10;93.10;;;;;;4288050;33;43881;-82
2021/09/24 10:41:29;;;;;;;;;;;18.10;93.10;;;;;;4274241;33;45270;-82
2021/09/24 10:43:56;;;;;;;;;;;18.10;93.10;;;;;;4286042;33;46356;-82
2021/09/24 10:46:23;;;;;;;;;;;18.10;93.10;;;;;;4274473;33;42663;-82
2021/09/24 10:49:09;;;;;;;;;;;18.10;93.10;;;;;;4288492;33;20058;-81
2021/09/24 10:51:37;;;;;;;;;;;18.10;93.00;;;;;;4274645;33;45518;-81
2021/09/24 10:54:14;;;;;;;;;;;18.10;93.00;;;;;;4287409;33;43235;-83
2021/09/24 10:56:57;;;;;;;;;;;18.10;93.00;;;;;;4287518;33;43306;-82
2021/09/24 10:59:29;;;;;;;;;;;18.10;93.00;;;;;;4287156;33;43328;-83
2021/09/24 11:01:57;;;;;;;;;;;18.10;93.00;;;;;;4285944;33;42723;-80
2021/09/24 11:04:41;;;;;;;;;;;18.10;93.00;;;;;;4287248;33;43443;-81
2021/09/24 11:07:08;;;;;;;;;;;18.20;93.00;;;;;;4287615;33;43899;-81
2021/09/24 11:09:49;;;;;;;;;;;18.20;93.00;;;;;;4286921;33;43262;-81
2021/09/24 11:12:16;;;;;;;;;;;18.20;93.00;;;;;;4287590;33;44259;-81
2021/09/24 11:14:44;;;;;;;;;;;18.10;92.90;;;;;;4273929;33;44480;-81
2021/09/24 11:17:12;;;;;;;;;;;18.20;93.00;;;;;;4287405;33;43247;-82
2021/09/24 11:19:44;;;;;;;;;;;18.20;93.00;;;;;;4288149;33;19995;-79
2021/09/24 11:22:13;;;;;;;;;;;18.20;93.00;;;;;;4273726;33;45788;-81
2021/09/24 11:24:45;;;;;;;;;;;18.20;93.10;;;;;;4287336;33;44406;-81
2021/09/24 11:27:30;;;;;;;;;;;18.30;93.10;;;;;;4274759;33;43940;-82
2021/09/24 11:30:06;;;;;;;;;;;18.30;93.00;;;;;;4287441;33;43217;-80
2021/09/24 11:32:41;;;;;;;;;;;18.30;93.00;;;;;;4274119;33;42691;-81
2021/09/24 11:35:09;;;;;;;;;;;18.30;92.90;;;;;;4287304;33;45268;-80
2021/09/24 11:37:37;;;;;;;;;;;18.30;92.90;;;;;;4286955;33;43992;-81
2021/09/24 11:40:06;;;;;;;;;;;18.40;92.90;;;;;;4286049;33;43217;-81
2021/09/24 11:42:34;;;;;;;;;;;18.40;92.90;;;;;;4274269;33;44200;-80
2021/09/24 11:45:03;;;;;;;;;;;18.40;92.80;;;;;;4286791;33;44292;-80
2021/09/24 11:47:33;;;;;;;;;;;18.40;92.80;;;;;;4287210;33;43883;-80
2021/09/24 11:50:03;;;;;;;;;;;18.50;92.80;;;;;;4274950;33;19999;-80
2021/09/24 11:52:52;;;;;;;;;;;18.50;92.80;;;;;;4274331;33;43390;-81
2021/09/24 11:55:22;;;;;;;;;;;18.50;92.80;;;;;;4286057;33;44798;-80
2021/09/24 11:58:05;;;;;;;;;;;18.60;92.90;;;;;;4273402;33;44270;-81
2021/09/24 12:00:35;;;;;;;;;;;18.60;92.80;;;;;;4286870;33;43957;-80
2021/09/24 12:03:28;;;;;;;;;;;18.70;92.80;;;;;;4271005;33;43013;-81
2021/09/24 12:06:08;;;;;;;;;;;18.70;92.80;;;;;;4282028;33;42645;-82
2021/09/24 12:08:41;;;;;;;;;;;18.80;92.80;;;;;;4271161;33;44299;-81
2021/09/24 12:11:10;;;;;;;;;;;18.80;92.70;;;;;;4272737;33;43478;-81
2021/09/24 12:13:41;;;;;;;;;;;18.90;92.60;;;;;;4272619;33;42728;-81
2021/09/24 12:16:10;;;;;;;;;;;18.90;92.60;;;;;;4271471;33;44536;-83
2021/09/24 12:18:52;;;;;;;;;;;18.90;92.60;;;;;;4272041;33;42744;-82
2021/09/24 12:21:21;;;;;;;;;;;18.90;92.60;;;;;;4271232;33;44020;-81
2021/09/24 12:23:48;;;;;;;;;;;18.90;92.50;;;;;;4272200;33;44746;-82
2021/09/24 12:26:15;;;;;;;;;;;19.00;92.40;;;;;;4272210;33;42901;-83
2021/09/24 12:29:03;;;;;;;;;;;19.00;92.40;;;;;;4271979;33;43789;-82
2021/09/24 12:31:40;;;;;;;;;;;19.00;92.30;;;;;;4282748;33;44215;-82
2021/09/24 12:34:11;;;;;;;;;;;19.10;92.30;;;;;;4271243;33;43510;-82
2021/09/24 12:36:54;;;;;;;;;;;19.10;92.30;;;;;;4272204;33;45231;-82
2021/09/24 12:39:22;;;;;;;;;;;19.10;92.30;;;;;;4272414;33;45062;-81
2021/09/24 12:41:50;;;;;;;;;;;19.10;92.00;;;;;;4282725;33;42714;-82
2021/09/24 12:44:17;;;;;;;;;;;19.10;92.20;;;;;;4272051;33;44175;-82
2021/09/24 12:46:46;;;;;;;;;;;19.10;92.10;;;;;;4282802;33;45139;-82
2021/09/24 12:49:13;;;;;;;;;;;19.20;92.10;;;;;;4272080;33;43603;-82
2021/09/24 12:51:41;;;;;;;;;;;19.20;92.10;;;;;;4283898;33;20413;-81
2021/09/24 12:54:12;;;;;;;;;;;19.20;92.10;;;;;;4282808;33;43912;-82
2021/09/24 12:56:40;;;;;;;;;;;19.30;92.10;;;;;;4283100;33;43546;-81
2021/09/24 12:59:10;;;;;;;;;;;19.30;92.00;;;;;;4282507;33;44071;-81
2021/09/24 13:01:38;;;;;;;;;;;19.30;92.10;;;;;;4274208;33;45303;-81
2021/09/24 13:04:07;;;;;;;;;;;19.30;92.00;;;;;;4285795;33;43149;-83
2021/09/24 13:06:34;;;;;;;;;;;19.30;92.00;;;;;;4285205;33;42595;-82
2021/09/24 13:09:01;;;;;;;;;;;19.30;91.90;;;;;;4275755;33;44581;-81
2021/09/24 13:11:30;;;;;;;;;;;19.40;91.90;;;;;;4288620;33;43414;-82
2021/09/24 13:13:58;;;;;;;;;;;19.30;91.90;;;;;;4287417;33;43287;-81
2021/09/24 13:16:25;;;;;;;;;;;19.40;91.90;;;;;;4287397;33;44681;-82
2021/09/24 13:18:53;;;;;;;;;;;19.40;91.90;;;;;;4275937;33;43200;-82
2021/09/24 13:21:26;;;;;;;;;;;19.30;91.80;;;;;;4288839;33;43434;-81
2021/09/24 13:23:53;;;;;;;;;;;19.30;91.70;;;;;;4287415;33;42888;-82
2021/09/24 13:26:23;;;;;;;;;;;19.30;91.90;;;;;;4275962;33;43089;-83
2021/09/24 13:28:51;;;;;;;;;;;19.30;91.90;;;;;;4287625;33;43683;-82
2021/09/24 13:31:18;;;;;;;;;;;19.40;91.90;;;;;;4287625;33;43032;-82
2021/09/24 13:33:45;;;;;;;;;;;19.40;92.00;;;;;;4288656;33;43520;-83
2021/09/24 13:36:12;;;;;;;;;;;19.40;91.90;;;;;;4288352;33;44184;-82
2021/09/24 13:38:40;;;;;;;;;;;19.40;91.90;;;;;;4288349;33;44330;-82
2021/09/24 13:41:07;;;;;;;;;;;19.40;91.80;;;;;;4288232;33;43030;-82
2021/09/24 13:43:39;;;;;;;;;;;19.40;91.90;;;;;;4288350;33;43109;-82
2021/09/24 13:46:06;;;;;;;;;;;19.40;91.90;;;;;;4275807;33;43896;-84
2021/09/24 13:48:36;;;;;;;;;;;19.40;91.90;;;;;;4275098;33;44339;-82
2021/09/24 13:51:03;;;;;;;;;;;19.40;91.80;;;;;;4288567;33;43319;-83
2021/09/24 13:53:31;;;;;;;;;;;19.40;91.90;;;;;;4275228;33;42871;-82
2021/09/24 13:55:59;;;;;;;;;;;19.50;92.00;;;;;;4288513;33;43857;-82
2021/09/24 13:58:26;;;;;;;;;;;19.50;92.00;;;;;;4274963;33;44837;-81
2021/09/24 14:00:53;;;;;;;;;;;19.50;91.90;;;;;;4275323;33;42884;-82
2021/09/24 14:03:20;;;;;;;;;;;19.50;92.00;;;;;;4286720;33;44197;-83
2021/09/24 14:05:49;;;;;;;;;;;19.50;91.90;;;;;;4288354;33;44854;-82
2021/09/24 14:08:18;;;;;;;;;;;19.50;91.90;;;;;;4274980;33;45054;-82
2021/09/24 14:10:46;;;;;;;;;;;19.50;92.00;;;;;;4288321;33;43880;-83
2021/09/24 14:13:13;;;;;;;;;;;19.50;92.00;;;;;;4288117;33;43454;-83
2021/09/24 14:15:40;;;;;;;;;;;19.50;92.00;;;;;;4288276;33;44185;-83
2021/09/24 14:18:10;;;;;;;;;;;19.60;92.00;;;;;;4274922;33;44187;-83
2021/09/24 14:20:38;;;;;;;;;;;19.60;91.90;;;;;;4288092;33;43806;-83
2021/09/24 14:23:05;;;;;;;;;;;19.60;91.90;;;;;;4287735;33;44628;-83
2021/09/24 14:25:32;;;;;;;;;;;19.60;91.90;;;;;;4275212;33;43216;-83
2021/09/24 14:27:59;;;;;;;;;;;19.60;91.90;;;;;;4287619;33;44153;-82